Time;durP1;ratioP1;P1;durP2;ratioP2;P2;SDS_P1;SDS_P2;PMS_P1;PMS_P2;Temp;Humidity;BMP_temperature;BMP_pressure;BME280_temperature;BME280_humidity;BME280_pressure;Samples;Min_cycle;Max_cycle;Signal;HPM_P1;HPM_P2
2022/02/20 00:02:05;;;;;;;6.07;1.55;;;;;;;;;;5010501;28;20076;-85
2022/02/20 00:04:31;;;;;;;7.82;1.05;;;;;;;;;;4995084;28;20049;-84
2022/02/20 00:06:56;;;;;;;4.43;0.85;;;;;;;;;;4995888;28;20103;-85
2022/02/20 00:09:21;;;;;;;6.00;1.02;;;;;;;;;;4993028;28;20050;-84
2022/02/20 00:11:47;;;;;;;8.63;1.10;;;;;;;;;;4990400;28;20041;-84
2022/02/20 00:14:12;;;;;;;7.07;1.20;;;;;;;;;;4990217;28;20025;-83
2022/02/20 00:16:38;;;;;;;7.50;1.35;;;;;;;;;;5007182;28;20039;-84
2022/02/20 00:19:03;;;;;;;8.02;0.98;;;;;;;;;;4991994;28;20504;-84
2022/02/20 00:21:28;;;;;;;3.83;0.88;;;;;;;;;;4970791;28;20038;-86
2022/02/20 00:23:54;;;;;;;4.07;0.70;;;;;;;;;;4964704;28;20147;-85
2022/02/20 00:26:19;;;;;;;5.20;1.00;;;;;;;;;;4976474;28;20115;-86
2022/02/20 00:28:45;;;;;;;8.23;1.42;;;;;;;;;;4974326;28;20025;-83
2022/02/20 00:31:10;;;;;;;5.90;0.80;;;;;;;;;;4973046;28;20479;-84
2022/02/20 00:33:35;;;;;;;3.97;0.77;;;;;;;;;;4971972;28;20026;-85
2022/02/20 00:36:01;;;;;;;5.45;0.80;;;;;;;;;;4984795;28;20583;-85
2022/02/20 00:38:28;;;;;;;3.47;0.80;;;;;;;;;;4977218;28;20040;-85
2022/02/20 00:40:53;;;;;;;4.32;0.70;;;;;;;;;;4970284;28;20026;-86
2022/02/20 00:43:19;;;;;;;3.33;0.68;;;;;;;;;;4974310;28;20487;-85
2022/02/20 00:45:45;;;;;;;8.13;0.88;;;;;;;;;;4973116;28;20057;-85
2022/02/20 00:48:11;;;;;;;4.25;1.00;;;;;;;;;;4973243;28;20495;-85
2022/02/20 00:50:36;;;;;;;7.95;0.80;;;;;;;;;;4975976;28;20439;-85
2022/02/20 00:53:02;;;;;;;3.95;0.80;;;;;;;;;;4979278;28;20042;-86
2022/02/20 00:55:27;;;;;;;5.22;1.50;;;;;;;;;;4978772;28;20084;-84
2022/02/20 00:57:53;;;;;;;4.93;1.27;;;;;;;;;;4971965;28;20112;-85
2022/02/20 01:00:19;;;;;;;7.55;1.20;;;;;;;;;;4972878;28;20030;-84
2022/02/20 01:02:45;;;;;;;4.75;1.17;;;;;;;;;;4964922;28;20128;-84
2022/02/20 01:05:10;;;;;;;6.60;1.50;;;;;;;;;;4972908;28;20150;-84
2022/02/20 01:07:36;;;;;;;5.93;1.30;;;;;;;;;;4971590;28;20442;-86
2022/02/20 01:10:03;;;;;;;3.63;1.20;;;;;;;;;;4972476;28;20097;-86
2022/02/20 01:12:30;;;;;;;4.47;1.10;;;;;;;;;;4971221;28;20031;-83
2022/02/20 01:14:55;;;;;;;5.55;1.25;;;;;;;;;;4980733;28;20057;-84
2022/02/20 01:17:21;;;;;;;6.72;1.00;;;;;;;;;;4974229;28;20502;-86
2022/02/20 01:19:48;;;;;;;5.40;1.00;;;;;;;;;;4986901;28;20491;-84
2022/02/20 01:22:13;;;;;;;5.25;1.30;;;;;;;;;;4979172;28;20027;-84
2022/02/20 01:24:38;;;;;;;6.85;1.45;;;;;;;;;;4979150;28;21019;-84
2022/02/20 01:27:04;;;;;;;5.53;1.05;;;;;;;;;;4978985;28;20030;-85
2022/02/20 01:29:30;;;;;;;5.25;1.20;;;;;;;;;;4979796;28;20030;-86
2022/02/20 01:31:55;;;;;;;6.95;1.17;;;;;;;;;;4983407;28;20030;-84
2022/02/20 01:34:21;;;;;;;4.85;1.20;;;;;;;;;;4986057;28;20407;-84
2022/02/20 01:36:47;;;;;;;5.07;0.80;;;;;;;;;;4984539;28;20042;-84
2022/02/20 01:39:12;;;;;;;6.65;1.00;;;;;;;;;;4982368;28;20030;-84
2022/02/20 01:41:38;;;;;;;3.08;0.80;;;;;;;;;;4988313;28;20034;-86
2022/02/20 01:44:06;;;;;;;6.53;1.00;;;;;;;;;;4985040;28;20488;-85
2022/02/20 01:46:32;;;;;;;4.40;0.70;;;;;;;;;;4993604;28;20098;-84
2022/02/20 01:48:58;;;;;;;3.40;0.80;;;;;;;;;;4981848;28;20070;-85
2022/02/20 01:51:23;;;;;;;7.30;1.13;;;;;;;;;;4981137;28;20057;-85
2022/02/20 01:53:49;;;;;;;4.47;0.88;;;;;;;;;;4981097;28;20039;-84
2022/02/20 01:56:14;;;;;;;3.70;0.70;;;;;;;;;;4981591;28;20026;-85
2022/02/20 01:58:42;;;;;;;4.95;1.02;;;;;;;;;;4978857;28;20042;-85
2022/02/20 02:01:08;;;;;;;5.60;0.85;;;;;;;;;;4981528;28;20041;-86
2022/02/20 02:03:38;;;;;;;5.22;0.80;;;;;;;;;;4984188;28;20042;-86
2022/02/20 02:06:04;;;;;;;5.07;0.90;;;;;;;;;;4983279;28;20117;-85
2022/02/20 02:08:29;;;;;;;2.95;0.70;;;;;;;;;;4984975;28;20109;-83
2022/02/20 02:10:55;;;;;;;3.90;0.82;;;;;;;;;;4989720;28;20033;-85
2022/02/20 02:13:20;;;;;;;5.18;0.80;;;;;;;;;;4989550;28;20054;-86
2022/02/20 02:15:50;;;;;;;4.18;0.80;;;;;;;;;;4986988;28;20034;-86
2022/02/20 02:18:15;;;;;;;3.28;0.90;;;;;;;;;;5001468;28;20046;-83
2022/02/20 02:20:40;;;;;;;2.72;0.65;;;;;;;;;;4994601;28;20037;-84
2022/02/20 02:23:06;;;;;;;2.80;0.75;;;;;;;;;;4992011;28;20375;-86
2022/02/20 02:25:33;;;;;;;3.50;0.90;;;;;;;;;;4990786;28;20057;-83
2022/02/20 02:27:58;;;;;;;3.63;0.80;;;;;;;;;;4994832;28;20045;-86
2022/02/20 02:30:23;;;;;;;4.00;0.70;;;;;;;;;;4991005;28;20694;-87
2022/02/20 02:32:49;;;;;;;3.80;0.80;;;;;;;;;;4991208;28;20025;-84
2022/02/20 02:35:14;;;;;;;2.80;0.50;;;;;;;;;;4986345;28;20398;-84
2022/02/20 02:37:39;;;;;;;3.25;0.65;;;;;;;;;;4997313;28;20318;-86
2022/02/20 02:40:06;;;;;;;4.20;0.60;;;;;;;;;;4997300;28;20022;-86
2022/02/20 02:42:31;;;;;;;3.72;0.95;;;;;;;;;;4992206;28;20041;-84
2022/02/20 02:44:56;;;;;;;4.95;0.50;;;;;;;;;;5002789;28;20029;-86
2022/02/20 02:47:21;;;;;;;4.88;0.60;;;;;;;;;;4996553;28;20036;-85
2022/02/20 02:49:47;;;;;;;4.95;0.90;;;;;;;;;;4993650;28;20036;-83
2022/02/20 02:52:12;;;;;;;2.92;0.70;;;;;;;;;;4991327;28;20026;-84
2022/02/20 02:54:37;;;;;;;5.80;1.15;;;;;;;;;;5006766;28;20085;-84
2022/02/20 02:57:04;;;;;;;4.78;0.80;;;;;;;;;;4993266;28;20033;-85
2022/02/20 02:59:29;;;;;;;2.65;0.65;;;;;;;;;;4996708;28;20065;-85
2022/02/20 03:01:58;;;;;;;2.28;0.60;;;;;;;;;;5000013;28;20064;-84
2022/02/20 03:04:24;;;;;;;2.03;0.75;;;;;;;;;;5001253;28;20087;-85
2022/02/20 03:06:49;;;;;;;4.68;1.05;;;;;;;;;;4989709;28;20033;-84
2022/02/20 03:09:15;;;;;;;4.35;1.30;;;;;;;;;;5012155;28;20064;-83
2022/02/20 03:11:40;;;;;;;3.42;1.10;;;;;;;;;;5000194;28;20132;-84
2022/02/20 03:14:06;;;;;;;3.30;1.20;;;;;;;;;;4996334;28;20490;-84
2022/02/20 03:16:31;;;;;;;3.33;1.30;;;;;;;;;;4997808;28;20510;-85
2022/02/20 03:18:57;;;;;;;3.58;1.70;;;;;;;;;;4989031;28;20137;-85
2022/02/20 03:21:22;;;;;;;2.85;1.20;;;;;;;;;;4988907;28;20022;-86
2022/02/20 03:23:48;;;;;;;4.60;1.33;;;;;;;;;;4990287;28;20038;-83
2022/02/20 03:26:13;;;;;;;5.32;1.30;;;;;;;;;;4988057;28;20036;-84
2022/02/20 03:28:38;;;;;;;6.70;1.58;;;;;;;;;;4992139;28;20064;-86
2022/02/20 03:31:04;;;;;;;4.07;1.10;;;;;;;;;;4995766;28;20414;-84
2022/02/20 03:33:30;;;;;;;4.78;1.08;;;;;;;;;;4989116;28;20042;-85
2022/02/20 03:35:56;;;;;;;4.63;1.13;;;;;;;;;;4989977;28;20026;-85
2022/02/20 03:38:21;;;;;;;3.13;0.90;;;;;;;;;;4985167;28;20027;-85
2022/02/20 03:40:46;;;;;;;3.20;0.85;;;;;;;;;;4992983;28;20023;-87
2022/02/20 03:43:12;;;;;;;4.05;0.73;;;;;;;;;;4986377;28;20027;-87
2022/02/20 03:45:37;;;;;;;5.70;0.70;;;;;;;;;;4995095;28;20064;-84
2022/02/20 03:48:03;;;;;;;5.40;0.88;;;;;;;;;;4990964;28;20018;-85
2022/02/20 03:50:29;;;;;;;7.53;1.15;;;;;;;;;;4989026;28;20532;-83
2022/02/20 03:52:55;;;;;;;4.70;1.00;;;;;;;;;;4987235;28;20498;-85
2022/02/20 03:55:21;;;;;;;4.03;0.70;;;;;;;;;;4978337;28;20031;-86
2022/02/20 03:57:47;;;;;;;4.45;0.90;;;;;;;;;;4989101;28;20026;-85
2022/02/20 04:00:14;;;;;;;6.82;1.00;;;;;;;;;;4982412;28;20022;-84
2022/02/20 04:02:40;;;;;;;5.00;1.08;;;;;;;;;;4989780;28;20045;-85
2022/02/20 04:05:10;;;;;;;5.88;1.10;;;;;;;;;;4986000;28;20019;-83
2022/02/20 04:07:36;;;;;;;5.68;1.27;;;;;;;;;;4982997;28;20729;-84
2022/02/20 04:10:03;;;;;;;4.57;1.38;;;;;;;;;;4992635;28;20021;-87
2022/02/20 04:12:29;;;;;;;4.63;1.30;;;;;;;;;;4990193;28;20765;-87
2022/02/20 04:14:55;;;;;;;9.25;1.90;;;;;;;;;;4983085;28;20089;-86
2022/02/20 04:17:20;;;;;;;7.30;2.03;;;;;;;;;;4988331;28;20534;-86
2022/02/20 04:19:47;;;;;;;5.88;1.92;;;;;;;;;;4989474;28;20476;-85
2022/02/20 04:22:13;;;;;;;8.02;2.20;;;;;;;;;;4984175;28;20034;-82
2022/02/20 04:24:39;;;;;;;7.05;2.40;;;;;;;;;;4986949;28;20026;-85
2022/02/20 04:27:04;;;;;;;7.30;2.50;;;;;;;;;;4989266;28;20706;-87
2022/02/20 04:29:29;;;;;;;8.73;2.60;;;;;;;;;;4988686;28;20035;-84
2022/02/20 04:31:55;;;;;;;10.13;2.83;;;;;;;;;;4984023;28;20045;-84
2022/02/20 04:34:20;;;;;;;9.55;2.90;;;;;;;;;;4989587;28;20138;-85
2022/02/20 04:36:45;;;;;;;6.22;3.30;;;;;;;;;;4989885;28;20134;-83
2022/02/20 04:39:11;;;;;;;7.32;3.10;;;;;;;;;;4986650;28;20485;-85
2022/02/20 04:41:36;;;;;;;8.82;3.35;;;;;;;;;;4989484;28;20075;-84
2022/02/20 04:44:02;;;;;;;9.80;3.58;;;;;;;;;;4986231;28;20191;-84
2022/02/20 04:46:27;;;;;;;8.27;3.83;;;;;;;;;;4985657;28;20364;-84
2022/02/20 04:48:52;;;;;;;9.18;4.00;;;;;;;;;;4991524;28;20033;-84
2022/02/20 04:51:18;;;;;;;8.70;4.00;;;;;;;;;;4987636;28;20034;-84
2022/02/20 04:53:43;;;;;;;10.55;4.82;;;;;;;;;;4987502;28;20468;-87
2022/02/20 04:56:09;;;;;;;7.95;4.35;;;;;;;;;;4983244;28;20391;-85
2022/02/20 04:58:34;;;;;;;10.75;5.10;;;;;;;;;;4993214;28;20045;-86
2022/02/20 05:01:00;;;;;;;13.10;5.05;;;;;;;;;;4993932;28;20513;-86
2022/02/20 05:03:25;;;;;;;9.57;4.63;;;;;;;;;;4982959;28;20038;-84
2022/02/20 05:05:51;;;;;;;11.10;5.18;;;;;;;;;;4989368;28;20498;-86
2022/02/20 05:08:16;;;;;;;9.05;5.07;;;;;;;;;;4986474;28;20033;-86
2022/02/20 05:10:41;;;;;;;8.65;4.68;;;;;;;;;;4979799;28;20042;-86
2022/02/20 05:13:07;;;;;;;10.75;4.82;;;;;;;;;;4988494;28;20039;-85
2022/02/20 05:15:32;;;;;;;9.65;5.50;;;;;;;;;;4994520;28;20488;-86
2022/02/20 05:17:58;;;;;;;13.68;5.13;;;;;;;;;;4993920;28;20058;-86
2022/02/20 05:20:23;;;;;;;10.98;5.05;;;;;;;;;;4993041;28;20100;-85
2022/02/20 05:22:49;;;;;;;9.15;5.55;;;;;;;;;;4984549;28;20026;-84
2022/02/20 05:25:16;;;;;;;8.90;5.00;;;;;;;;;;4983977;28;20030;-83
2022/02/20 05:27:42;;;;;;;9.93;4.60;;;;;;;;;;4984750;28;20030;-84
2022/02/20 05:30:09;;;;;;;11.65;5.05;;;;;;;;;;4989075;28;20125;-85
2022/02/20 05:32:34;;;;;;;13.73;5.35;;;;;;;;;;4990206;28;20045;-85
2022/02/20 05:35:00;;;;;;;11.30;4.78;;;;;;;;;;4986970;28;20479;-85
2022/02/20 05:37:25;;;;;;;10.75;4.85;;;;;;;;;;4988459;28;20036;-84
2022/02/20 05:39:51;;;;;;;9.63;4.50;;;;;;;;;;4985362;28;20030;-85
2022/02/20 05:42:16;;;;;;;11.88;4.65;;;;;;;;;;4987883;28;20029;-85
2022/02/20 05:44:42;;;;;;;12.43;4.80;;;;;;;;;;4983522;28;20496;-85
2022/02/20 05:47:07;;;;;;;13.50;4.28;;;;;;;;;;4988127;28;20158;-86
2022/02/20 05:49:32;;;;;;;9.98;4.05;;;;;;;;;;4983507;28;20026;-85
2022/02/20 05:51:58;;;;;;;15.52;4.45;;;;;;;;;;4990899;28;20041;-85
2022/02/20 05:54:23;;;;;;;9.38;4.38;;;;;;;;;;4989941;28;20037;-85
2022/02/20 05:56:50;;;;;;;11.95;3.78;;;;;;;;;;4983898;28;20069;-84
2022/02/20 05:59:16;;;;;;;11.15;3.88;;;;;;;;;;4990421;28;20100;-83
2022/02/20 06:01:41;;;;;;;18.27;4.38;;;;;;;;;;4989407;28;20030;-86
2022/02/20 06:04:07;;;;;;;12.25;4.43;;;;;;;;;;4982520;28;20056;-86
2022/02/20 06:06:32;;;;;;;14.27;3.40;;;;;;;;;;4980336;28;20394;-85
2022/02/20 06:08:59;;;;;;;12.65;3.08;;;;;;;;;;4983381;28;20453;-83
2022/02/20 06:11:25;;;;;;;13.13;3.40;;;;;;;;;;4991096;28;20022;-83
2022/02/20 06:13:50;;;;;;;17.27;3.55;;;;;;;;;;4990759;28;20092;-83
2022/02/20 06:16:16;;;;;;;13.07;3.53;;;;;;;;;;4995762;28;20034;-84
2022/02/20 06:18:41;;;;;;;10.45;3.00;;;;;;;;;;4987567;28;20061;-86
2022/02/20 06:21:06;;;;;;;11.38;3.17;;;;;;;;;;4990915;28;20396;-84
2022/02/20 06:23:32;;;;;;;13.85;3.28;;;;;;;;;;4985721;28;20072;-85
2022/02/20 06:25:59;;;;;;;16.00;3.97;;;;;;;;;;4981785;28;20034;-84
2022/02/20 06:28:25;;;;;;;16.88;3.95;;;;;;;;;;4985787;28;20026;-84
2022/02/20 06:30:50;;;;;;;15.18;3.67;;;;;;;;;;4991980;28;20499;-86
2022/02/20 06:33:15;;;;;;;15.93;3.55;;;;;;;;;;4994798;28;20030;-84
2022/02/20 06:35:41;;;;;;;12.63;3.63;;;;;;;;;;4988317;28;20022;-83
2022/02/20 06:38:06;;;;;;;13.73;3.88;;;;;;;;;;4995824;28;20026;-83
2022/02/20 06:40:32;;;;;;;14.20;3.80;;;;;;;;;;4989590;28;20026;-83
2022/02/20 06:42:57;;;;;;;22.35;4.22;;;;;;;;;;4987480;28;20045;-83
2022/02/20 06:45:23;;;;;;;14.80;3.38;;;;;;;;;;4991896;28;20021;-83
2022/02/20 06:47:49;;;;;;;15.13;3.25;;;;;;;;;;4987525;28;20037;-83
2022/02/20 06:50:14;;;;;;;14.38;3.35;;;;;;;;;;4988045;28;20042;-85
2022/02/20 06:52:40;;;;;;;13.32;2.42;;;;;;;;;;4988307;28;20122;-83
2022/02/20 06:55:06;;;;;;;13.45;2.85;;;;;;;;;;4984161;28;20038;-83
2022/02/20 06:57:36;;;;;;;10.63;2.78;;;;;;;;;;4986409;28;20403;-83
2022/02/20 07:00:07;;;;;;;10.93;2.55;;;;;;;;;;4985270;28;20526;-83
2022/02/20 07:02:34;;;;;;;10.63;2.63;;;;;;;;;;4988373;28;20093;-83
2022/02/20 07:04:59;;;;;;;11.88;2.40;;;;;;;;;;4983277;28;20034;-84
2022/02/20 07:07:25;;;;;;;15.18;3.65;;;;;;;;;;4982522;28;20049;-83
2022/02/20 07:09:50;;;;;;;11.18;2.08;;;;;;;;;;4983143;28;20041;-85
2022/02/20 07:12:15;;;;;;;9.57;2.08;;;;;;;;;;4979897;28;20030;-83
2022/02/20 07:14:41;;;;;;;9.40;2.45;;;;;;;;;;4980196;28;20031;-84
2022/02/20 07:17:06;;;;;;;11.73;2.45;;;;;;;;;;4987096;28;20541;-83
2022/02/20 07:19:31;;;;;;;9.35;2.33;;;;;;;;;;4986478;28;20480;-83
2022/02/20 07:21:57;;;;;;;8.00;2.15;;;;;;;;;;4992321;28;20423;-84
2022/02/20 07:24:22;;;;;;;7.30;1.92;;;;;;;;;;4983198;28;20041;-84
2022/02/20 07:26:48;;;;;;;7.13;2.40;;;;;;;;;;4996229;28;20446;-83
2022/02/20 07:29:14;;;;;;;8.45;2.83;;;;;;;;;;4992192;28;20379;-82
2022/02/20 07:31:39;;;;;;;10.13;3.30;;;;;;;;;;4993249;28;20033;-83
2022/02/20 07:34:05;;;;;;;8.18;2.50;;;;;;;;;;4986916;28;20030;-82
2022/02/20 07:36:30;;;;;;;5.97;2.10;;;;;;;;;;4992612;28;20034;-83
2022/02/20 07:38:55;;;;;;;6.43;2.42;;;;;;;;;;4989553;28;20563;-83
2022/02/20 07:41:20;;;;;;;6.60;2.80;;;;;;;;;;4986390;28;20493;-84
2022/02/20 07:43:48;;;;;;;5.47;2.40;;;;;;;;;;4989418;28;20180;-83
2022/02/20 07:46:15;;;;;;;7.20;2.60;;;;;;;;;;4986446;28;20546;-83
2022/02/20 07:48:41;;;;;;;7.55;3.00;;;;;;;;;;4985318;28;20117;-84
2022/02/20 07:51:06;;;;;;;5.80;2.50;;;;;;;;;;5003079;28;20113;-82
2022/02/20 07:53:32;;;;;;;5.18;2.55;;;;;;;;;;4979804;28;20057;-84
2022/02/20 07:55:57;;;;;;;6.07;2.72;;;;;;;;;;4987122;28;20026;-83
2022/02/20 07:58:26;;;;;;;6.35;2.40;;;;;;;;;;4985992;28;20040;-83
2022/02/20 08:00:51;;;;;;;4.00;2.33;;;;;;;;;;4985013;28;20034;-83
2022/02/20 08:03:19;;;;;;;5.47;2.50;;;;;;;;;;4984067;28;20030;-83
2022/02/20 08:05:45;;;;;;;6.13;2.20;;;;;;;;;;4985819;28;20508;-83
2022/02/20 08:08:11;;;;;;;5.72;2.70;;;;;;;;;;4984015;28;20042;-83
2022/02/20 08:10:39;;;;;;;5.32;2.50;;;;;;;;;;4986177;28;20029;-83
2022/02/20 08:13:05;;;;;;;6.22;2.88;;;;;;;;;;4985820;28;20030;-84
2022/02/20 08:15:30;;;;;;;5.97;3.15;;;;;;;;;;4987254;28;20387;-83
2022/02/20 08:17:58;;;;;;;6.28;3.33;;;;;;;;;;4985247;28;20164;-84
2022/02/20 08:20:24;;;;;;;7.03;3.20;;;;;;;;;;4988249;28;20459;-84
2022/02/20 08:23:01;;;;;;;7.03;3.42;;;;;;;;;;4989590;28;20031;-84
2022/02/20 08:25:37;;;;;;;7.63;3.50;;;;;;;;;;4986674;28;20026;-84
2022/02/20 08:28:14;;;;;;;7.82;3.40;;;;;;;;;;4987396;28;20030;-83
2022/02/20 08:30:39;;;;;;;5.82;3.50;;;;;;;;;;4971509;28;20121;-83
2022/02/20 08:33:07;;;;;;;6.97;3.53;;;;;;;;;;4993998;28;20117;-83
2022/02/20 08:35:38;;;;;;;7.82;3.78;;;;;;;;;;4985468;28;20109;-83
2022/02/20 08:38:15;;;;;;;7.82;3.95;;;;;;;;;;4988754;28;20408;-83
2022/02/20 08:40:43;;;;;;;10.00;4.32;;;;;;;;;;4981508;28;20026;-84
2022/02/20 08:43:14;;;;;;;10.73;4.25;;;;;;;;;;4985652;28;20122;-82
2022/02/20 08:45:43;;;;;;;7.72;5.00;;;;;;;;;;4984600;28;20054;-84
2022/02/20 08:48:45;;;;;;;8.95;5.13;;;;;;;;;;4986003;28;20424;-83
2022/02/20 08:51:15;;;;;;;10.70;5.35;;;;;;;;;;4988033;28;20082;-84
2022/02/20 08:54:36;;;;;;;10.63;5.63;;;;;;;;;;4990485;28;20442;-84
2022/02/20 08:57:08;;;;;;;16.27;6.20;;;;;;;;;;4980266;28;20321;-83
2022/02/20 08:59:37;;;;;;;14.32;6.50;;;;;;;;;;4988180;28;20040;-83
2022/02/20 09:02:16;;;;;;;;;;;;;;;;;;;;;
2022/02/20 09:04:46;;;;;;;13.75;6.00;;;;;;;;;;4993256;28;20061;-82
2022/02/20 09:07:14;;;;;;;15.00;6.47;;;;;;;;;;4989470;28;20092;-81
2022/02/20 09:09:40;;;;;;;13.18;6.40;;;;;;;;;;4988761;28;20032;-83
2022/02/20 09:12:06;;;;;;;12.38;7.00;;;;;;;;;;4988163;28;20034;-82
2022/02/20 09:14:31;;;;;;;18.58;6.85;;;;;;;;;;4992358;28;20380;-82
2022/02/20 09:16:58;;;;;;;15.68;7.00;;;;;;;;;;4990360;28;20623;-82
2022/02/20 09:19:23;;;;;;;15.15;6.65;;;;;;;;;;4994903;28;20034;-82
2022/02/20 09:21:48;;;;;;;17.23;7.00;;;;;;;;;;4994414;28;20036;-82
2022/02/20 09:24:14;;;;;;;18.60;6.75;;;;;;;;;;4986753;28;20018;-82
2022/02/20 09:26:39;;;;;;;15.32;6.20;;;;;;;;;;4996461;28;20034;-82
2022/02/20 09:29:07;;;;;;;15.57;5.93;;;;;;;;;;4993588;28;20059;-83
2022/02/20 09:31:32;;;;;;;20.35;6.90;;;;;;;;;;4988922;28;20544;-83
2022/02/20 09:33:58;;;;;;;21.73;6.88;;;;;;;;;;5010289;28;20030;-83
2022/02/20 09:36:23;;;;;;;15.98;7.13;;;;;;;;;;5014184;28;20112;-82
2022/02/20 09:38:49;;;;;;;25.35;7.15;;;;;;;;;;4986084;28;20634;-83
2022/02/20 09:41:15;;;;;;;15.57;6.53;;;;;;;;;;4998503;28;20018;-82
2022/02/20 09:43:41;;;;;;;18.20;7.32;;;;;;;;;;5006729;28;20022;-83
2022/02/20 09:46:07;;;;;;;25.58;7.78;;;;;;;;;;4990258;28;20038;-83
2022/02/20 09:48:33;;;;;;;25.08;7.60;;;;;;;;;;4984626;28;20080;-82
2022/02/20 09:50:59;;;;;;;15.68;6.93;;;;;;;;;;4983306;28;20038;-83
2022/02/20 09:53:28;;;;;;;22.13;6.90;;;;;;;;;;4993234;28;20033;-83
2022/02/20 09:55:55;;;;;;;25.40;6.97;;;;;;;;;;4989719;28;20029;-83
2022/02/20 09:58:21;;;;;;;21.50;6.28;;;;;;;;;;4992273;28;20680;-82
2022/02/20 10:00:51;;;;;;;26.27;7.38;;;;;;;;;;4988921;28;20060;-83
2022/02/20 10:03:27;;;;;;;16.02;6.72;;;;;;;;;;5014552;28;20474;-83
2022/02/20 10:05:54;;;;;;;21.15;6.45;;;;;;;;;;5000855;28;20038;-82
2022/02/20 10:08:22;;;;;;;25.52;7.03;;;;;;;;;;4991750;28;20052;-84
2022/02/20 10:10:47;;;;;;;24.15;6.55;;;;;;;;;;4993965;28;20391;-83
2022/02/20 10:13:24;;;;;;;26.95;6.15;;;;;;;;;;4986196;28;20030;-83
2022/02/20 10:15:49;;;;;;;25.40;6.80;;;;;;;;;;4990942;28;20029;-82
2022/02/20 10:18:21;;;;;;;16.58;6.13;;;;;;;;;;4994232;28;20042;-82
2022/02/20 10:20:58;;;;;;;25.33;6.22;;;;;;;;;;4994700;28;20069;-83
2022/02/20 10:23:23;;;;;;;26.95;6.05;;;;;;;;;;4989315;28;20021;-83
2022/02/20 10:25:49;;;;;;;20.85;5.95;;;;;;;;;;4992805;28;20085;-82
2022/02/20 10:28:18;;;;;;;22.77;6.30;;;;;;;;;;4999296;28;20018;-82
2022/02/20 10:30:49;;;;;;;28.58;5.90;;;;;;;;;;4985562;28;20459;-83
2022/02/20 10:33:20;;;;;;;23.15;5.82;;;;;;;;;;4991181;28;20115;-81
2022/02/20 10:35:48;;;;;;;26.50;5.50;;;;;;;;;;4988219;28;20078;-83
2022/02/20 10:38:20;;;;;;;26.00;4.82;;;;;;;;;;4991748;28;20526;-82
2022/02/20 10:40:55;;;;;;;22.08;5.05;;;;;;;;;;4986372;28;20461;-82
2022/02/20 10:43:34;;;;;;;25.70;5.00;;;;;;;;;;4990520;28;20038;-83
2022/02/20 10:46:07;;;;;;;25.80;6.55;;;;;;;;;;4993779;28;20034;-82
2022/02/20 10:48:45;;;;;;;;;;;;;;;;;;4992604;28;20032;-82
2022/02/20 10:51:15;;;;;;;27.05;6.95;;;;;;;;;;4991177;28;20688;-82
2022/02/20 10:53:41;;;;;;;25.83;6.57;;;;;;;;;;4989450;28;20069;-83
2022/02/20 10:56:07;;;;;;;24.45;6.75;;;;;;;;;;4987786;28;20085;-82
2022/02/20 10:58:35;;;;;;;29.95;6.68;;;;;;;;;;4989132;28;20463;-83
2022/02/20 11:01:04;;;;;;;27.63;6.15;;;;;;;;;;4982588;28;20054;-82
2022/02/20 11:03:36;;;;;;;23.20;5.22;;;;;;;;;;4990087;28;20463;-82
2022/02/20 11:06:01;;;;;;;28.10;5.55;;;;;;;;;;4987110;28;20030;-83
2022/02/20 11:08:38;;;;;;;22.27;4.78;;;;;;;;;;4991896;28;20025;-82
2022/02/20 11:11:36;;;;;;;26.05;5.43;;;;;;;;;;4992283;28;20105;-82
2022/02/20 11:13:56;;;;;;;25.10;4.80;;;;;;;;;;4997551;28;20030;-81
2022/02/20 11:16:24;;;;;;;28.98;5.85;;;;;;;;;;4981940;28;20066;-81
2022/02/20 11:18:53;;;;;;;20.30;4.32;;;;;;;;;;4989418;28;20054;-82
2022/02/20 11:21:19;;;;;;;23.45;4.82;;;;;;;;;;4988709;28;20717;-82
2022/02/20 11:23:46;;;;;;;21.70;4.35;;;;;;;;;;4991159;28;20034;-83
2022/02/20 11:26:12;;;;;;;24.60;5.03;;;;;;;;;;4992239;28;20034;-83
2022/02/20 11:28:38;;;;;;;27.40;4.47;;;;;;;;;;4986340;28;20109;-82
2022/02/20 11:31:10;;;;;;;21.02;5.40;;;;;;;;;;4984209;28;20117;-82
2022/02/20 11:33:42;;;;;;;23.42;5.15;;;;;;;;;;4984676;28;20031;-82
2022/02/20 11:36:13;;;;;;;22.30;5.50;;;;;;;;;;4994817;28;20097;-82
2022/02/20 11:39:28;;;;;;;20.95;5.18;;;;;;;;;;4988128;28;20030;-83
2022/02/20 11:42:15;;;;;;;21.10;3.92;;;;;;;;;;4984222;28;20038;-83
2022/02/20 11:44:48;;;;;;;19.25;4.03;;;;;;;;;;4989021;28;20026;-83
2022/02/20 11:47:34;;;;;;;21.05;4.65;;;;;;;;;;4994436;28;20756;-84
2022/02/20 11:50:18;;;;;;;23.08;4.22;;;;;;;;;;4991528;28;20490;-85
2022/02/20 11:52:45;;;;;;;23.55;4.47;;;;;;;;;;4987730;28;20038;-82
2022/02/20 11:55:43;;;;;;;22.55;4.75;;;;;;;;;;4985100;28;20049;-83
2022/02/20 11:58:17;;;;;;;21.05;4.32;;;;;;;;;;4986027;28;20100;-83
2022/02/20 12:00:54;;;;;;;19.15;5.13;;;;;;;;;;4988542;28;20072;-83
2022/02/20 12:03:23;;;;;;;20.70;4.40;;;;;;;;;;4987226;28;20380;-82
2022/02/20 12:06:18;;;;;;;19.13;3.97;;;;;;;;;;4986536;28;20042;-83
2022/02/20 12:08:48;;;;;;;18.50;3.83;;;;;;;;;;4993041;28;20382;-83
2022/02/20 12:11:26;;;;;;;21.75;4.60;;;;;;;;;;4990241;28;20038;-83
2022/02/20 12:13:56;;;;;;;26.35;5.40;;;;;;;;;;4992443;28;20546;-83
2022/02/20 12:16:27;;;;;;;18.42;4.18;;;;;;;;;;4991739;28;20034;-83
2022/02/20 12:19:17;;;;;;;15.13;3.88;;;;;;;;;;5002846;28;20041;-82
2022/02/20 12:22:01;;;;;;;18.73;4.13;;;;;;;;;;4989151;28;20029;-82
2022/02/20 12:24:35;;;;;;;23.88;4.55;;;;;;;;;;4989371;28;20030;-83
2022/02/20 12:27:03;;;;;;;20.88;4.47;;;;;;;;;;4988577;28;20038;-83
2022/02/20 12:29:37;;;;;;;24.48;4.82;;;;;;;;;;4988758;28;20064;-83
2022/02/20 12:32:14;;;;;;;19.42;4.68;;;;;;;;;;4989929;28;20049;-84
2022/02/20 12:35:11;;;;;;;26.92;5.55;;;;;;;;;;4988959;28;20483;-82
2022/02/20 12:37:46;;;;;;;18.92;4.10;;;;;;;;;;4992457;28;20022;-83
2022/02/20 12:40:29;;;;;;;19.13;4.60;;;;;;;;;;4989565;28;20080;-83
2022/02/20 12:43:07;;;;;;;21.20;4.57;;;;;;;;;;4990357;28;20450;-83
2022/02/20 12:45:41;;;;;;;23.90;5.28;;;;;;;;;;4988163;28;20028;-81
2022/02/20 12:48:09;;;;;;;20.55;4.53;;;;;;;;;;4990983;28;20034;-83
2022/02/20 12:50:42;;;;;;;23.02;4.65;;;;;;;;;;4991266;28;20746;-83
2022/02/20 12:53:08;;;;;;;;;;;;;;;;;;5012692;28;20029;-82
2022/02/20 12:55:37;;;;;;;19.88;4.38;;;;;;;;;;4991478;28;19917;-81
2022/02/20 12:58:08;;;;;;;21.48;4.88;;;;;;;;;;5003100;28;20022;-82
2022/02/20 13:00:39;;;;;;;17.58;4.38;;;;;;;;;;5009113;28;20022;-83
2022/02/20 13:03:16;;;;;;;19.13;4.72;;;;;;;;;;4989778;28;20029;-83
2022/02/20 13:05:48;;;;;;;18.33;5.22;;;;;;;;;;4986027;28;20026;-84
2022/02/20 13:08:29;;;;;;;23.23;4.82;;;;;;;;;;4988131;28;20121;-82
2022/02/20 13:10:57;;;;;;;22.15;5.18;;;;;;;;;;4988632;28;20057;-83
2022/02/20 13:13:27;;;;;;;25.10;4.68;;;;;;;;;;4986598;28;20395;-82
2022/02/20 13:16:02;;;;;;;24.00;4.18;;;;;;;;;;4988247;28;20240;-82
2022/02/20 13:18:30;;;;;;;22.60;4.53;;;;;;;;;;4984152;28;20500;-82
2022/02/20 13:21:06;;;;;;;27.25;4.32;;;;;;;;;;4988639;28;20029;-83
2022/02/20 13:23:37;;;;;;;21.38;4.82;;;;;;;;;;4987889;28;20410;-81
2022/02/20 13:26:13;;;;;;;25.75;5.18;;;;;;;;;;4988098;28;20040;-83
2022/02/20 13:28:45;;;;;;;20.58;4.70;;;;;;;;;;4984328;28;20026;-83
2022/02/20 13:31:12;;;;;;;22.42;5.07;;;;;;;;;;5001689;28;20026;-83
2022/02/20 13:33:43;;;;;;;19.10;4.60;;;;;;;;;;4983773;28;20033;-82
2022/02/20 13:36:09;;;;;;;18.48;4.10;;;;;;;;;;4988120;28;20037;-83
2022/02/20 13:38:39;;;;;;;21.13;4.22;;;;;;;;;;4985108;28;20040;-82
2022/02/20 13:41:11;;;;;;;20.40;3.85;;;;;;;;;;4980556;28;20025;-83
2022/02/20 13:43:54;;;;;;;21.63;4.22;;;;;;;;;;4987172;28;20029;-82
2022/02/20 13:46:43;;;;;;;21.52;4.47;;;;;;;;;;4988171;28;20065;-83
2022/02/20 13:49:10;;;;;;;19.50;4.43;;;;;;;;;;4992434;28;20060;-82
2022/02/20 13:51:39;;;;;;;15.30;4.10;;;;;;;;;;4986671;28;20030;-83
2022/02/20 13:54:09;;;;;;;18.80;4.00;;;;;;;;;;4990951;28;20033;-82
2022/02/20 13:56:42;;;;;;;18.42;3.72;;;;;;;;;;5002538;28;20356;-83
2022/02/20 13:59:09;;;;;;;20.60;4.32;;;;;;;;;;4988463;28;20030;-83
2022/02/20 14:01:54;;;;;;;17.20;4.10;;;;;;;;;;4989636;28;20064;-82
2022/02/20 14:04:30;;;;;;;23.65;4.57;;;;;;;;;;4993132;28;20057;-83
2022/02/20 14:07:07;;;;;;;18.80;4.45;;;;;;;;;;4993323;28;20077;-83
2022/02/20 14:09:38;;;;;;;18.83;3.85;;;;;;;;;;5009606;28;20033;-83
2022/02/20 14:12:24;;;;;;;16.95;4.00;;;;;;;;;;5007649;28;20037;-83
2022/02/20 14:15:20;;;;;;;20.30;4.72;;;;;;;;;;4986348;28;20489;-82
2022/02/20 14:17:53;;;;;;;17.67;3.97;;;;;;;;;;4989619;28;20116;-82
2022/02/20 14:20:23;;;;;;;18.48;4.18;;;;;;;;;;4990104;28;20140;-83
2022/02/20 14:22:51;;;;;;;19.67;4.13;;;;;;;;;;4987991;28;20029;-83
2022/02/20 14:25:19;;;;;;;19.35;4.30;;;;;;;;;;4989618;28;20033;-83
2022/02/20 14:27:49;;;;;;;16.30;4.03;;;;;;;;;;5000309;28;20479;-82
2022/02/20 14:30:27;;;;;;;19.23;4.03;;;;;;;;;;4987319;28;20479;-83
2022/02/20 14:32:57;;;;;;;17.70;4.30;;;;;;;;;;4992548;28;20056;-83
2022/02/20 14:35:44;;;;;;;17.50;4.10;;;;;;;;;;4995557;28;20044;-84
2022/02/20 14:38:33;;;;;;;;;;;;;;;;;;;;;
2022/02/20 14:40:59;;;;;;;15.63;4.07;;;;;;;;;;5012049;28;20034;-82
2022/02/20 14:43:25;;;;;;;17.98;3.97;;;;;;;;;;5001392;28;20032;-82
2022/02/20 14:45:52;;;;;;;17.38;4.25;;;;;;;;;;4999491;28;20037;-83
2022/02/20 14:48:20;;;;;;;15.00;4.40;;;;;;;;;;4993777;28;20034;-82